Rhyolite, Nevada
Current Conditions -  °F | °C
As of 7:52 PM on Tuesday 25 Nov 2014 (Local Time) from KDRA Reporting Station
Clear Clear  
Wind Chill: 42°   Ceiling: Unl
Heat Index: 44°   Visibility: 10mi
Dew Point:   Wind: 5mph
Humidity: 20%   Direction: 90°E
Pressure: 30.39"   Gusts: NA
Location:  36.9096°N, 116.761°W
Report Text: KDRA 260352Z AUTO 09004KT 10SM CLR 07/M15 A3039 RMK AO2 SLP287 T00671150
Loading
Personal Weather Stations






























Interactive Weather Map New forecast layout! Learn more

10-Day Weather Forecast

Advertisements
Track Severe Weather on mobile